createdAt,value
2023-04-18T00:00:26.867Z,4.23
2023-04-18T00:02:56.300Z,3.85
2023-04-18T00:05:24.604Z,3.08
2023-04-18T00:07:53.293Z,5.18
2023-04-18T00:10:21.216Z,3.58
2023-04-18T00:12:49.428Z,4.67
2023-04-18T00:15:17.602Z,4.78
2023-04-18T00:17:45.837Z,6.65
2023-04-18T00:20:13.924Z,7.38
2023-04-18T00:22:46.966Z,7.18
2023-04-18T00:25:15.750Z,6.23
2023-04-18T00:27:43.992Z,5.53
2023-04-18T00:30:12.532Z,6.70
2023-04-18T00:32:40.436Z,6.25
2023-04-18T00:35:09.184Z,7.90
2023-04-18T00:37:37.888Z,7.47
2023-04-18T00:40:07.003Z,6.13
2023-04-18T00:42:34.974Z,7.85
2023-04-18T00:45:03.239Z,5.95
2023-04-18T00:47:31.394Z,4.93
2023-04-18T00:50:00.349Z,5.43
2023-04-18T00:52:28.894Z,5.45
2023-04-18T00:54:57.172Z,5.65
2023-04-18T00:57:25.716Z,4.88
2023-04-18T00:59:53.844Z,4.60
2023-04-18T01:02:22.553Z,5.27
2023-04-18T01:04:51.273Z,4.72
2023-04-18T01:07:19.263Z,4.78
2023-04-18T01:09:48.395Z,3.35
2023-04-18T01:12:16.459Z,3.72
2023-04-18T01:14:44.725Z,4.50
2023-04-18T01:17:13.687Z,4.63
2023-04-18T01:19:42.056Z,2.60
2023-04-18T01:22:14.956Z,3.58
2023-04-18T01:24:43.185Z,3.00
2023-04-18T01:27:14.522Z,2.63
2023-04-18T01:29:42.866Z,3.10
2023-04-18T01:32:11.033Z,4.30
2023-04-18T01:34:39.126Z,3.35
2023-04-18T01:37:07.410Z,2.20
2023-04-18T01:39:35.764Z,2.37
2023-04-18T01:42:03.757Z,2.60
2023-04-18T01:44:31.983Z,2.75
2023-04-18T01:47:00.066Z,3.88
2023-04-18T01:49:29.162Z,2.05
2023-04-18T01:51:57.342Z,2.57
2023-04-18T01:54:25.399Z,2.83
2023-04-18T01:56:53.687Z,2.72
2023-04-18T01:59:21.643Z,1.92
2023-04-18T02:01:49.805Z,3.05
2023-04-18T02:04:18.752Z,2.70
2023-04-18T02:06:47.907Z,2.90
2023-04-18T02:09:16.584Z,2.25
2023-04-18T02:11:44.825Z,2.90
2023-04-18T02:14:13.135Z,2.40
2023-04-18T02:16:41.632Z,2.90
2023-04-18T02:19:09.757Z,3.25
2023-04-18T02:21:38.084Z,2.33
2023-04-18T02:24:06.061Z,3.00
2023-04-18T02:26:34.272Z,2.20
2023-04-18T02:29:02.257Z,2.70
2023-04-18T02:31:30.637Z,2.30
2023-04-18T02:33:58.768Z,2.28
2023-04-18T02:36:28.602Z,2.20
2023-04-18T02:38:56.589Z,2.97
2023-04-18T02:41:24.910Z,2.00
2023-04-18T02:43:55.776Z,2.40
2023-04-18T02:46:24.939Z,1.90
2023-04-18T02:48:53.209Z,2.80
2023-04-18T02:51:25.467Z,2.95
2023-04-18T02:53:55.823Z,2.13
2023-04-18T02:56:25.734Z,1.95
2023-04-18T02:59:23.383Z,3.22
2023-04-18T03:01:57.859Z,2.60
2023-04-18T03:04:26.166Z,2.78
2023-04-18T03:07:02.987Z,3.03
2023-04-18T03:09:35.805Z,1.90
2023-04-18T03:12:10.028Z,2.20
2023-04-18T03:14:38.482Z,3.10
2023-04-18T03:17:07.083Z,2.50
2023-04-18T03:19:41.058Z,2.57
2023-04-18T03:22:14.681Z,2.00
2023-04-18T03:24:53.032Z,2.00
2023-04-18T03:27:24.010Z,1.90
2023-04-18T03:29:52.377Z,4.35
2023-04-18T03:32:20.414Z,1.97
2023-04-18T03:34:49.229Z,2.47
2023-04-18T03:37:17.585Z,3.13
2023-04-18T03:39:51.476Z,4.60
2023-04-18T03:42:20.238Z,5.38
2023-04-18T03:44:48.145Z,4.30
2023-04-18T03:47:17.248Z,4.60
2023-04-18T03:49:49.309Z,5.13
2023-04-18T03:52:20.445Z,5.32
2023-04-18T03:54:48.597Z,5.40
2023-04-18T03:57:18.572Z,7.10
2023-04-18T03:59:47.913Z,4.82
2023-04-18T04:02:16.319Z,4.05
2023-04-18T04:04:44.740Z,4.13
2023-04-18T04:07:13.213Z,4.00
2023-04-18T04:09:41.342Z,3.10
2023-04-18T04:12:09.528Z,3.55
2023-04-18T04:14:38.066Z,4.72
2023-04-18T04:17:06.587Z,3.30
2023-04-18T04:19:35.038Z,2.75
2023-04-18T04:22:11.084Z,3.33
2023-04-18T04:24:39.999Z,4.88
2023-04-18T04:27:08.534Z,2.90
2023-04-18T04:29:39.584Z,4.20
2023-04-18T04:32:08.869Z,2.90
2023-04-18T04:34:41.838Z,4.03
2023-04-18T04:37:15.477Z,4.05
2023-04-18T04:39:57.476Z,4.20
2023-04-18T04:42:47.056Z,4.15
2023-04-18T04:45:23.748Z,5.78
2023-04-18T04:47:53.323Z,3.00
2023-04-18T04:50:22.286Z,2.83
2023-04-18T04:52:50.531Z,4.20
2023-04-18T04:55:19.335Z,4.15
2023-04-18T04:57:48.207Z,3.60
2023-04-18T05:00:42.565Z,2.70
2023-04-18T05:03:11.988Z,4.32
2023-04-18T05:05:40.406Z,3.80
2023-04-18T05:08:08.718Z,4.38
2023-04-18T05:10:39.558Z,2.50
2023-04-18T05:13:07.590Z,3.37
2023-04-18T05:15:39.957Z,2.85
2023-04-18T05:18:08.143Z,3.95
2023-04-18T05:20:36.368Z,2.63
2023-04-18T05:23:04.688Z,3.40
2023-04-18T05:25:33.957Z,3.00
2023-04-18T05:28:04.999Z,2.88
2023-04-18T05:30:32.992Z,2.53
2023-04-18T05:33:01.370Z,3.88
2023-04-18T05:35:30.221Z,3.47
2023-04-18T05:37:59.278Z,3.33
2023-04-18T05:40:30.718Z,5.28
2023-04-18T05:42:58.975Z,4.30
2023-04-18T05:45:27.271Z,5.10
2023-04-18T05:47:55.721Z,4.18
2023-04-18T05:50:24.192Z,3.20
2023-04-18T05:52:52.896Z,3.63
2023-04-18T05:55:21.000Z,3.55
2023-04-18T05:57:49.294Z,3.50
2023-04-18T06:00:18.365Z,2.13
2023-04-18T06:02:47.040Z,2.10
2023-04-18T06:05:15.288Z,1.83
2023-04-18T06:07:43.665Z,2.63
2023-04-18T06:10:13.810Z,2.78
2023-04-18T06:12:42.730Z,4.20
2023-04-18T06:15:11.499Z,3.80
2023-04-18T06:17:40.792Z,3.13
2023-04-18T06:20:10.102Z,2.78
2023-04-18T06:22:41.064Z,2.28
2023-04-18T06:25:10.638Z,1.92
2023-04-18T06:27:39.271Z,2.20
2023-04-18T06:30:11.038Z,2.20
2023-04-18T06:32:39.192Z,2.83
2023-04-18T06:35:07.761Z,1.75
2023-04-18T06:37:36.142Z,2.95
2023-04-18T06:40:04.550Z,2.07
2023-04-18T06:42:32.762Z,1.92
2023-04-18T06:45:01.260Z,1.58
2023-04-18T06:47:29.983Z,1.60
2023-04-18T06:49:58.325Z,2.20
2023-04-18T06:52:26.787Z,4.20
2023-04-18T06:54:54.728Z,2.80
2023-04-18T06:57:22.956Z,1.98
2023-04-18T06:59:51.106Z,2.28
2023-04-18T07:02:19.422Z,3.33
2023-04-18T07:04:47.789Z,3.37
2023-04-18T07:07:16.414Z,1.50
2023-04-18T07:09:44.356Z,4.20
2023-04-18T07:12:12.768Z,1.90
2023-04-18T07:14:41.149Z,2.90
2023-04-18T07:17:09.674Z,4.47
2023-04-18T07:19:37.720Z,2.72
2023-04-18T07:22:05.963Z,2.92
2023-04-18T07:24:34.388Z,2.88
2023-04-18T07:27:03.693Z,3.03
2023-04-18T07:29:32.244Z,2.90
2023-04-18T07:32:00.368Z,3.92
2023-04-18T07:34:30.261Z,2.90
2023-04-18T07:37:01.683Z,4.63
2023-04-18T07:39:29.883Z,2.95
2023-04-18T07:41:58.268Z,5.07
2023-04-18T07:44:26.451Z,5.03
2023-04-18T07:46:54.560Z,4.10
2023-04-18T07:49:24.218Z,3.88
2023-04-18T07:51:52.394Z,2.33
2023-04-18T07:54:20.731Z,3.40
2023-04-18T07:56:49.064Z,2.55
2023-04-18T07:59:17.295Z,4.43
2023-04-18T08:01:45.668Z,3.33
2023-04-18T08:04:15.145Z,3.67
2023-04-18T08:06:43.204Z,2.67
2023-04-18T08:09:12.412Z,3.47
2023-04-18T08:11:41.966Z,3.08
2023-04-18T08:14:10.104Z,3.25
2023-04-18T08:16:38.411Z,2.97
2023-04-18T08:19:06.810Z,5.00
2023-04-18T08:21:34.868Z,3.28
2023-04-18T08:24:03.112Z,3.60
2023-04-18T08:26:31.559Z,4.93
2023-04-18T08:28:59.717Z,4.20
2023-04-18T08:31:28.033Z,4.70
2023-04-18T08:33:56.250Z,2.58
2023-04-18T08:36:25.292Z,2.42
2023-04-18T08:38:53.418Z,2.80
2023-04-18T08:41:25.788Z,4.25
2023-04-18T08:43:55.250Z,4.37
2023-04-18T08:46:25.445Z,4.97
2023-04-18T08:48:54.220Z,3.70
2023-04-18T08:51:23.173Z,4.93
2023-04-18T08:53:51.652Z,3.03
2023-04-18T08:56:23.025Z,3.30
2023-04-18T08:58:51.288Z,3.83
2023-04-18T09:01:19.306Z,2.78
2023-04-18T09:03:47.917Z,3.53
2023-04-18T09:06:19.529Z,5.82
2023-04-18T09:08:59.600Z,3.60
2023-04-18T09:11:30.498Z,3.28
2023-04-18T09:14:02.900Z,2.50
2023-04-18T09:16:50.875Z,3.58
2023-04-18T09:19:19.261Z,3.20
2023-04-18T09:21:49.183Z,4.87
2023-04-18T09:24:26.836Z,2.67
2023-04-18T09:27:00.299Z,3.50
2023-04-18T09:29:58.088Z,3.38
2023-04-18T09:32:29.780Z,3.97
2023-04-18T09:35:04.965Z,2.47
2023-04-18T09:37:33.733Z,3.95
2023-04-18T09:40:01.767Z,3.25
2023-04-18T09:42:37.775Z,3.97
2023-04-18T09:45:08.216Z,3.47
2023-04-18T09:47:37.870Z,3.07
2023-04-18T09:50:08.627Z,3.55
2023-04-18T09:52:42.448Z,4.43
2023-04-18T09:55:14.300Z,2.75
2023-04-18T09:57:48.907Z,3.85
2023-04-18T10:00:25.661Z,2.80
2023-04-18T10:03:05.668Z,2.90
2023-04-18T10:05:36.638Z,2.92
2023-04-18T10:08:08.929Z,3.13
2023-04-18T10:10:38.660Z,3.60
2023-04-18T10:13:11.556Z,2.47
2023-04-18T10:15:41.756Z,6.47
2023-04-18T10:18:17.090Z,3.15
2023-04-18T10:20:47.907Z,3.65
2023-04-18T10:23:54.795Z,3.70
2023-04-18T10:26:50.768Z,3.10
2023-04-18T10:29:25.233Z,4.65
2023-04-18T10:31:53.946Z,3.13
2023-04-18T10:34:22.383Z,2.75
2023-04-18T10:37:06.879Z,2.67
2023-04-18T10:40:06.465Z,5.03
2023-04-18T10:42:52.841Z,2.70
2023-04-18T10:45:22.707Z,3.35
2023-04-18T10:47:51.473Z,3.85
2023-04-18T10:50:19.975Z,3.00
2023-04-18T10:52:48.222Z,4.50
2023-04-18T10:55:26.743Z,3.03
2023-04-18T10:57:56.964Z,3.28
2023-04-18T11:00:26.455Z,2.22
2023-04-18T11:03:00.805Z,4.28
2023-04-18T11:05:33.006Z,4.10
2023-04-18T11:08:01.324Z,6.15
2023-04-18T11:10:29.964Z,3.42
2023-04-18T11:13:05.160Z,3.17
2023-04-18T11:15:37.181Z,2.75
2023-04-18T11:18:05.990Z,3.50
2023-04-18T11:20:46.552Z,2.80
2023-04-18T11:23:25.333Z,3.20
2023-04-18T11:25:57.118Z,2.35
2023-04-18T11:28:27.460Z,2.88
2023-04-18T11:31:00.709Z,2.73
2023-04-18T11:33:30.305Z,3.13
2023-04-18T11:36:01.997Z,2.35
2023-04-18T11:38:34.028Z,2.90
2023-04-18T11:41:03.739Z,3.20
2023-04-18T11:43:31.776Z,2.70
2023-04-18T11:46:01.162Z,2.95
2023-04-18T11:48:39.707Z,2.20
2023-04-18T11:51:29.642Z,3.70
2023-04-18T11:53:58.130Z,2.72
2023-04-18T11:56:26.283Z,2.83
2023-04-18T11:58:54.773Z,2.50
2023-04-18T12:01:25.718Z,2.67
2023-04-18T12:04:07.298Z,3.22
2023-04-18T12:06:53.799Z,2.58
2023-04-18T12:09:25.147Z,2.17
2023-04-18T12:12:01.525Z,2.13
2023-04-18T12:14:31.309Z,3.55
2023-04-18T12:16:59.559Z,4.22
2023-04-18T12:19:28.631Z,3.97
2023-04-18T12:21:58.198Z,3.17
2023-04-18T12:24:26.810Z,3.72
2023-04-18T12:26:55.646Z,4.45
2023-04-18T12:29:24.534Z,3.50
2023-04-18T12:31:53.285Z,2.97
2023-04-18T12:34:21.503Z,3.23
2023-04-18T12:36:49.979Z,2.88
2023-04-18T12:39:18.026Z,3.75
2023-04-18T12:41:47.660Z,4.15
2023-04-18T12:44:18.098Z,4.15
2023-04-18T12:46:46.173Z,3.63
2023-04-18T12:49:14.482Z,3.55
2023-04-18T12:51:44.182Z,4.15
2023-04-18T12:54:13.005Z,4.88
2023-04-18T12:56:41.086Z,6.00
2023-04-18T12:59:09.490Z,3.70
2023-04-18T13:01:37.666Z,4.03
2023-04-18T13:04:12.219Z,4.35
2023-04-18T13:06:43.075Z,5.57
2023-04-18T13:09:11.605Z,5.55
2023-04-18T13:11:39.644Z,6.07
2023-04-18T13:14:08.027Z,6.47
2023-04-18T13:16:36.153Z,5.00
2023-04-18T13:19:04.417Z,3.85
2023-04-18T13:21:32.611Z,4.05
2023-04-18T13:24:01.427Z,6.60
2023-04-18T13:26:29.589Z,6.45
2023-04-18T13:28:57.760Z,5.13
2023-04-18T13:31:25.899Z,5.50
2023-04-18T13:33:53.910Z,4.15
2023-04-18T13:36:21.891Z,6.10
2023-04-18T13:38:50.964Z,3.97
2023-04-18T13:41:18.856Z,4.32
2023-04-18T13:43:47.156Z,4.30
2023-04-18T13:46:15.170Z,5.63
2023-04-18T13:48:43.266Z,5.67
2023-04-18T13:51:11.554Z,3.60
2023-04-18T13:53:39.758Z,4.32
2023-04-18T13:56:08.010Z,4.68
2023-04-18T13:58:36.360Z,5.32
2023-04-18T14:01:04.461Z,5.97
2023-04-18T14:03:33.665Z,5.63
2023-04-18T14:06:03.522Z,4.43
2023-04-18T14:08:31.504Z,5.15
2023-04-18T14:10:59.482Z,5.13
2023-04-18T14:13:27.623Z,7.03
2023-04-18T14:15:55.749Z,5.82
2023-04-18T14:18:25.058Z,4.65
2023-04-18T14:20:53.735Z,9.07
2023-04-18T14:23:22.961Z,5.90
2023-04-18T14:25:51.323Z,6.47
2023-04-18T14:28:22.067Z,5.22
2023-04-18T14:30:50.162Z,6.85
2023-04-18T14:33:21.220Z,4.80
2023-04-18T14:35:49.353Z,6.03
2023-04-18T14:38:17.177Z,7.83
2023-04-18T14:40:45.416Z,5.28
2023-04-18T14:43:13.446Z,4.60
2023-04-18T14:45:41.674Z,5.57
2023-04-18T14:48:10.375Z,4.10
2023-04-18T14:50:39.280Z,5.00
2023-04-18T14:53:07.884Z,4.68
2023-04-18T14:55:36.826Z,5.38
2023-04-18T14:58:05.028Z,5.35
2023-04-18T15:00:33.551Z,6.07
2023-04-18T15:03:01.804Z,7.50
2023-04-18T15:05:30.245Z,5.97
2023-04-18T15:07:58.452Z,5.13
2023-04-18T15:10:26.621Z,5.78
2023-04-18T15:12:54.677Z,6.60
2023-04-18T15:15:23.149Z,5.93
2023-04-18T15:17:51.077Z,4.43
2023-04-18T15:20:20.385Z,4.97
2023-04-18T15:22:49.439Z,4.07
2023-04-18T15:25:18.135Z,6.25
2023-04-18T15:27:46.365Z,4.68
2023-04-18T15:30:14.655Z,6.43
2023-04-18T15:32:42.815Z,4.28
2023-04-18T15:35:13.835Z,7.38
2023-04-18T15:37:42.040Z,6.30
2023-04-18T15:40:11.867Z,4.10
2023-04-18T15:42:40.495Z,6.87
2023-04-18T15:45:08.765Z,5.45
2023-04-18T15:47:36.786Z,4.93
2023-04-18T15:50:05.555Z,5.40
2023-04-18T15:52:33.978Z,6.32
2023-04-18T15:55:01.928Z,4.73
2023-04-18T15:57:30.500Z,5.90
2023-04-18T15:59:59.850Z,5.68
2023-04-18T16:02:28.027Z,6.43
2023-04-18T16:04:56.313Z,4.68
2023-04-18T16:07:24.462Z,5.73
2023-04-18T16:09:52.424Z,3.63
2023-04-18T16:12:20.568Z,5.55
2023-04-18T16:14:48.475Z,5.88
2023-04-18T16:17:16.533Z,5.03
2023-04-18T16:19:47.538Z,5.97
2023-04-18T16:22:15.917Z,4.93
2023-04-18T16:24:43.841Z,3.80
2023-04-18T16:27:12.431Z,7.10
2023-04-18T16:29:45.717Z,5.13
2023-04-18T16:32:18.078Z,6.07
2023-04-18T16:34:46.507Z,7.22
2023-04-18T16:37:14.549Z,5.38
2023-04-18T16:39:42.952Z,5.55
2023-04-18T16:44:40.030Z,5.70
2023-04-18T16:47:08.706Z,8.63
2023-04-18T16:49:39.446Z,6.97
2023-04-18T16:52:07.950Z,7.95
2023-04-18T16:54:35.928Z,7.82
2023-04-18T16:57:05.098Z,7.60
2023-04-18T16:59:33.327Z,6.43
2023-04-18T17:02:01.762Z,7.90
2023-04-18T17:04:29.829Z,10.52
2023-04-18T17:06:58.663Z,11.73
2023-04-18T17:09:26.842Z,11.17
2023-04-18T17:11:54.832Z,12.63
2023-04-18T17:14:22.826Z,12.63
2023-04-18T17:16:53.311Z,11.00
2023-04-18T17:19:22.194Z,6.00
2023-04-18T17:21:51.669Z,5.77
2023-04-18T17:24:20.123Z,5.72
2023-04-18T17:26:48.038Z,5.00
2023-04-18T17:29:16.744Z,6.53
2023-04-18T17:31:44.772Z,8.95
2023-04-18T17:34:12.874Z,7.83
2023-04-18T17:36:40.725Z,7.95
2023-04-18T17:39:10.028Z,6.90
2023-04-18T17:41:39.413Z,7.45
2023-04-18T17:44:08.849Z,5.60
2023-04-18T17:46:37.369Z,5.47
2023-04-18T17:49:05.428Z,5.10
2023-04-18T17:51:33.945Z,4.68
2023-04-18T17:54:02.109Z,5.25
2023-04-18T17:56:32.169Z,7.80
2023-04-18T17:59:00.436Z,6.00
2023-04-18T18:01:30.927Z,5.93
2023-04-18T18:04:33.318Z,29.60
2023-04-18T18:07:02.081Z,7.05
2023-04-18T18:09:29.931Z,7.88
2023-04-18T18:11:59.368Z,8.23
2023-04-18T18:14:27.996Z,8.70
2023-04-18T18:16:56.465Z,7.05
2023-04-18T18:19:24.471Z,9.82
2023-04-18T18:21:52.724Z,10.63
2023-04-18T18:24:20.623Z,9.17
2023-04-18T18:26:51.489Z,13.13
2023-04-18T18:29:20.689Z,13.00
2023-04-18T18:31:48.754Z,13.57
2023-04-18T18:34:17.561Z,10.18
2023-04-18T18:36:45.430Z,10.93
2023-04-18T18:39:15.078Z,11.32
2023-04-18T18:41:43.830Z,12.35
2023-04-18T18:44:12.711Z,14.05
2023-04-18T18:46:42.655Z,13.15
2023-04-18T18:49:11.946Z,15.13
2023-04-18T18:51:41.455Z,16.25
2023-04-18T18:54:10.115Z,15.48
2023-04-18T18:56:40.107Z,14.65
2023-04-18T18:59:11.717Z,13.05
2023-04-18T19:01:39.836Z,11.70
2023-04-18T19:04:11.476Z,9.25
2023-04-18T19:06:40.293Z,13.10
2023-04-18T19:09:08.591Z,9.63
2023-04-18T19:11:36.876Z,11.18
2023-04-18T19:14:05.179Z,12.37
2023-04-18T19:16:34.760Z,9.77
2023-04-18T19:19:03.318Z,10.05
2023-04-18T19:21:32.154Z,11.13
2023-04-18T19:24:00.753Z,9.27
2023-04-18T19:26:28.820Z,8.17
2023-04-18T19:28:56.805Z,8.48
2023-04-18T19:31:25.101Z,10.38
2023-04-18T19:33:52.988Z,10.15
2023-04-18T19:36:22.957Z,8.65
2023-04-18T19:38:50.837Z,8.17
2023-04-18T19:41:18.886Z,10.60
2023-04-18T19:43:46.892Z,9.77
2023-04-18T19:46:15.113Z,9.50
2023-04-18T19:48:42.970Z,9.32
2023-04-18T19:51:11.418Z,9.13
2023-04-18T19:53:39.841Z,7.40
2023-04-18T19:56:11.330Z,6.45
2023-04-18T19:58:45.340Z,8.18
2023-04-18T20:01:14.841Z,7.57
2023-04-18T20:03:43.747Z,7.47
2023-04-18T20:06:12.172Z,8.40
2023-04-18T20:08:48.005Z,5.28
2023-04-18T20:11:16.414Z,5.45
2023-04-18T20:13:44.547Z,7.53
2023-04-18T20:16:13.053Z,6.00
2023-04-18T20:18:42.043Z,5.45
2023-04-18T20:21:11.478Z,6.97
2023-04-18T20:23:42.859Z,5.35
2023-04-18T20:26:11.053Z,5.28
2023-04-18T20:28:38.973Z,5.27
2023-04-18T20:31:07.619Z,5.32
2023-04-18T20:33:36.637Z,5.82
2023-04-18T20:36:06.945Z,7.13
2023-04-18T20:38:35.023Z,6.93
2023-04-18T20:41:03.280Z,7.00
2023-04-18T20:43:37.264Z,6.63
2023-04-18T20:46:05.491Z,6.18
2023-04-18T20:48:33.527Z,5.93
2023-04-18T20:51:02.040Z,8.95
2023-04-18T20:53:30.300Z,5.97
2023-04-18T20:55:58.991Z,8.73
2023-04-18T20:58:27.097Z,10.95
2023-04-18T21:00:55.294Z,5.45
2023-04-18T21:03:23.514Z,6.30
2023-04-18T21:05:52.098Z,9.25
2023-04-18T21:08:20.212Z,6.50
2023-04-18T21:10:48.327Z,8.43
2023-04-18T21:13:16.980Z,6.57
2023-04-18T21:15:45.292Z,8.75
2023-04-18T21:18:13.660Z,7.43
2023-04-18T21:20:41.827Z,6.37
2023-04-18T21:23:09.815Z,6.45
2023-04-18T21:25:38.021Z,6.75
2023-04-18T21:28:08.666Z,7.45
2023-04-18T21:30:36.781Z,8.23
2023-04-18T21:33:04.816Z,5.93
2023-04-18T21:35:33.046Z,7.25
2023-04-18T21:38:01.134Z,7.80
2023-04-18T21:40:31.197Z,6.57
2023-04-18T21:42:59.766Z,8.70
2023-04-18T21:45:28.895Z,6.17
2023-04-18T21:47:57.017Z,6.88
2023-04-18T21:50:24.961Z,5.75
2023-04-18T21:52:52.886Z,5.85
2023-04-18T21:55:20.875Z,8.50
2023-04-18T21:57:48.679Z,6.33
2023-04-18T22:00:16.985Z,7.70
2023-04-18T22:02:45.112Z,6.90
2023-04-18T22:05:13.219Z,5.97
2023-04-18T22:07:50.598Z,6.82
2023-04-18T22:10:25.900Z,6.27
2023-04-18T22:12:56.870Z,7.07
2023-04-18T22:15:27.587Z,6.43
2023-04-18T22:17:55.576Z,5.88
2023-04-18T22:20:23.583Z,6.10
2023-04-18T22:22:52.016Z,6.23
2023-04-18T22:25:19.761Z,7.57
2023-04-18T22:27:47.858Z,8.48
2023-04-18T22:30:15.905Z,7.80
2023-04-18T22:32:44.067Z,7.18
2023-04-18T22:35:12.085Z,6.10
2023-04-18T22:37:40.209Z,7.65
2023-04-18T22:40:09.559Z,8.25
2023-04-18T22:42:38.754Z,6.15
2023-04-18T22:45:08.448Z,6.50
2023-04-18T22:47:36.509Z,6.53
2023-04-18T22:50:04.613Z,5.95
2023-04-18T22:52:32.736Z,8.00
2023-04-18T22:55:01.685Z,6.47
2023-04-18T22:57:29.635Z,5.68
2023-04-18T22:59:57.997Z,5.00
2023-04-18T23:02:25.935Z,5.57
2023-04-18T23:04:53.988Z,6.70
2023-04-18T23:07:21.920Z,9.05
2023-04-18T23:09:49.693Z,5.25
2023-04-18T23:12:17.563Z,6.50
2023-04-18T23:14:45.475Z,5.57
2023-04-18T23:17:13.235Z,6.00
2023-04-18T23:19:40.922Z,5.65
2023-04-18T23:22:08.884Z,5.85
2023-04-18T23:24:36.780Z,7.40
2023-04-18T23:27:04.582Z,6.82
2023-04-18T23:29:32.387Z,5.95
2023-04-18T23:32:00.222Z,5.45
2023-04-18T23:34:27.922Z,6.55
2023-04-18T23:36:56.087Z,5.67
2023-04-18T23:39:28.265Z,5.82
2023-04-18T23:41:57.145Z,7.97
2023-04-18T23:44:25.983Z,6.20
2023-04-18T23:46:53.928Z,7.25
2023-04-18T23:49:21.854Z,6.03
2023-04-18T23:51:49.811Z,6.57
2023-04-18T23:54:17.542Z,5.90
2023-04-18T23:56:45.612Z,5.68
2023-04-18T23:59:13.426Z,6.60
